Time,TemperatureF,DewpointF,PressureIn,WindDirection,WindDirectionDegrees,WindSpeedMPH,WindSpeedGustMPH,Humidity,HourlyPrecipIn,Conditions,Clouds,dailyrainin,SoftwareType,DateUTC
2013-04-27 00:03:00,57.0,42.0,30.13,South,178,8.0,22.0,58,0.00,,,0.00,,2013-04-27 04:03:00,
2013-04-27 00:13:00,57.0,42.0,30.13,South,178,8.0,22.0,58,0.00,,,0.00,,2013-04-27 04:13:00,
2013-04-27 00:23:00,56.0,45.0,30.13,SW,223,5.0,21.0,67,0.06,,,0.06,,2013-04-27 04:23:00,
2013-04-27 00:33:00,54.0,46.0,30.14,WNW,302,12.0,15.0,73,0.07,,,0.07,,2013-04-27 04:33:00,
2013-04-27 00:43:00,54.0,46.0,30.14,WNW,302,12.0,15.0,73,0.07,,,0.07,,2013-04-27 04:43:00,
2013-04-27 00:53:00,52.0,45.0,30.17,WNW,293,6.0,17.0,76,0.08,,,0.08,,2013-04-27 04:53:00,
2013-04-27 01:02:00,49.0,45.0,30.18,North,9,0.0,0.0,86,0.12,,,0.12,,2013-04-27 05:02:00,
2013-04-27 01:12:00,49.0,45.0,30.18,North,9,0.0,0.0,86,0.12,,,0.12,,2013-04-27 05:12:00,
2013-04-27 01:22:00,49.0,46.0,30.18,WSW,246,0.0,0.0,89,0.06,,,0.12,,2013-04-27 05:22:00,
2013-04-27 01:32:00,49.0,46.0,30.20,South,178,0.0,0.0,91,0.09,,,0.15,,2013-04-27 05:32:00,
2013-04-27 01:42:00,49.0,46.0,30.20,South,178,0.0,0.0,91,0.09,,,0.15,,2013-04-27 05:42:00,
2013-04-27 01:52:00,49.0,46.0,30.18,South,169,0.0,0.0,91,0.07,,,0.15,,2013-04-27 05:52:00,
2013-04-27 02:02:00,49.0,47.0,30.18,SSE,148,0.0,0.0,92,0.03,,,0.15,,2013-04-27 06:02:00,
2013-04-27 02:12:00,49.0,47.0,30.18,SSE,148,0.0,0.0,92,0.03,,,0.15,,2013-04-27 06:12:00,
2013-04-27 02:22:00,49.0,47.0,30.18,South,191,0.0,0.0,93,0.03,,,0.15,,2013-04-27 06:22:00,
2013-04-27 02:32:00,49.0,47.0,30.18,South,191,0.0,0.0,93,0.00,,,0.15,,2013-04-27 06:32:00,
2013-04-27 02:42:00,49.0,47.0,30.18,South,191,0.0,0.0,93,0.00,,,0.15,,2013-04-27 06:42:00,
2013-04-27 02:52:00,48.0,46.0,30.17,South,191,0.0,0.0,93,0.00,,,0.15,,2013-04-27 06:52:00,
2013-04-27 03:01:00,47.0,45.0,30.18,South,191,0.0,0.0,93,0.00,,,0.15,,2013-04-27 07:01:00,
2013-04-27 03:11:00,47.0,45.0,30.18,South,191,0.0,0.0,93,0.00,,,0.15,,2013-04-27 07:11:00,
2013-04-27 03:21:00,47.0,45.0,30.17,South,191,0.0,0.0,94,0.00,,,0.15,,2013-04-27 07:21:00,
2013-04-27 03:32:00,47.0,45.0,30.17,South,190,0.0,0.0,94,0.00,,,0.15,,2013-04-27 07:32:00,
2013-04-27 03:42:00,47.0,45.0,30.17,South,190,0.0,0.0,94,0.00,,,0.15,,2013-04-27 07:42:00,
2013-04-27 03:52:00,47.0,46.0,30.17,South,184,0.0,0.0,95,0.00,,,0.15,,2013-04-27 07:52:00,
2013-04-27 04:01:00,48.0,47.0,30.17,SSW,193,1.0,4.0,95,0.00,,,0.15,,2013-04-27 08:01:00,
2013-04-27 04:11:00,48.0,47.0,30.17,SSW,193,1.0,4.0,95,0.00,,,0.15,,2013-04-27 08:11:00,
2013-04-27 04:21:00,49.0,48.0,30.16,SSW,204,4.0,13.0,95,0.00,,,0.15,,2013-04-27 08:21:00,
2013-04-27 04:33:00,50.0,48.0,30.17,SW,214,5.0,9.0,92,0.00,,,0.15,,2013-04-27 08:33:00,
2013-04-27 04:42:00,50.0,48.0,30.17,SW,214,5.0,9.0,92,0.00,,,0.15,,2013-04-27 08:42:00,
2013-04-27 04:52:00,50.0,47.0,30.16,SSW,205,5.0,10.0,90,0.00,,,0.15,,2013-04-27 08:52:00,
2013-04-27 05:01:00,51.0,48.0,30.16,SW,225,9.0,15.0,88,0.00,,,0.15,,2013-04-27 09:01:00,
2013-04-27 05:11:00,51.0,48.0,30.16,SW,225,9.0,15.0,88,0.00,,,0.15,,2013-04-27 09:11:00,
2013-04-27 05:21:00,51.0,47.0,30.17,SSW,211,8.0,15.0,86,0.00,,,0.15,,2013-04-27 09:21:00,
2013-04-27 05:33:00,51.0,47.0,30.17,SSW,199,5.0,11.0,86,0.00,,,0.15,,2013-04-27 09:33:00,
2013-04-27 05:42:00,51.0,47.0,30.17,SSW,199,5.0,11.0,86,0.00,,,0.15,,2013-04-27 09:42:00,
2013-04-27 05:53:00,51.0,47.0,30.16,SSW,200,6.0,10.0,86,0.00,,,0.15,,2013-04-27 09:53:00,
2013-04-27 06:03:00,51.0,47.0,30.16,SSW,194,7.0,15.0,86,0.00,,,0.15,,2013-04-27 10:03:00,
2013-04-27 06:12:00,51.0,47.0,30.16,SSW,194,7.0,15.0,86,0.00,,,0.15,,2013-04-27 10:12:00,
2013-04-27 06:22:00,51.0,47.0,30.16,SSW,208,7.0,12.0,86,0.00,,,0.15,,2013-04-27 10:22:00,
2013-04-27 06:32:00,51.0,47.0,30.16,SSW,195,5.0,9.0,86,0.00,,,0.15,,2013-04-27 10:32:00,
2013-04-27 06:42:00,51.0,47.0,30.16,SSW,195,5.0,9.0,86,0.00,,,0.15,,2013-04-27 10:42:00,
2013-04-27 06:52:00,51.0,47.0,30.16,SSW,194,4.0,11.0,85,0.00,,,0.15,,2013-04-27 10:52:00,
2013-04-27 07:02:00,51.0,46.0,30.16,SSW,198,3.0,13.0,84,0.00,,,0.15,,2013-04-27 11:02:00,
2013-04-27 07:12:00,51.0,46.0,30.16,SSW,202,5.0,11.0,84,0.00,,,0.15,,2013-04-27 11:12:00,
2013-04-27 07:22:00,51.0,46.0,30.16,SSW,202,5.0,11.0,84,0.00,,,0.15,,2013-04-27 11:22:00,
2013-04-27 07:32:00,51.0,46.0,30.16,SSW,193,6.0,12.0,84,0.00,,,0.15,,2013-04-27 11:32:00,
2013-04-27 07:42:00,51.0,46.0,30.16,SSW,193,6.0,12.0,84,0.00,,,0.15,,2013-04-27 11:42:00,
2013-04-27 07:52:00,52.0,47.0,30.17,SSW,195,5.0,13.0,83,0.00,,,0.15,,2013-04-27 11:52:00,
2013-04-27 08:01:00,53.0,48.0,30.17,SSW,204,8.0,13.0,82,0.00,,,0.15,,2013-04-27 12:01:00,
2013-04-27 08:11:00,53.0,48.0,30.17,SSW,204,8.0,13.0,82,0.00,,,0.15,,2013-04-27 12:11:00,
2013-04-27 08:22:00,54.0,48.0,30.18,SSW,208,7.0,16.0,80,0.00,,,0.15,,2013-04-27 12:22:00,
2013-04-27 08:32:00,55.0,48.0,30.18,SSW,208,7.0,16.0,78,0.00,,,0.15,,2013-04-27 12:32:00,
2013-04-27 08:42:00,55.0,48.0,30.18,SSW,208,7.0,16.0,78,0.00,,,0.15,,2013-04-27 12:42:00,
2013-04-27 08:52:00,56.0,49.0,30.18,SSW,192,9.0,19.0,76,0.00,,,0.15,,2013-04-27 12:52:00,
2013-04-27 09:02:00,57.0,49.0,30.18,SSW,207,14.0,20.0,74,0.00,,,0.15,,2013-04-27 13:02:00,
2013-04-27 09:11:00,57.0,49.0,30.18,SSW,207,14.0,20.0,74,0.00,,,0.15,,2013-04-27 13:11:00,
2013-04-27 09:21:00,57.0,48.0,30.18,SSW,210,12.0,20.0,73,0.00,,,0.15,,2013-04-27 13:21:00,
2013-04-27 09:32:00,58.0,49.0,30.19,SSW,201,11.0,21.0,71,0.00,,,0.15,,2013-04-27 13:32:00,
2013-04-27 09:42:00,58.0,49.0,30.19,SSW,201,11.0,21.0,71,0.00,,,0.15,,2013-04-27 13:42:00,
2013-04-27 09:52:00,58.0,49.0,30.19,SSW,209,11.0,19.0,71,0.00,,,0.15,,2013-04-27 13:52:00,
2013-04-27 10:02:00,59.0,49.0,30.19,WSW,249,9.0,19.0,70,0.00,,,0.15,,2013-04-27 14:02:00,
2013-04-27 10:11:00,59.0,49.0,30.19,WSW,249,9.0,19.0,70,0.00,,,0.15,,2013-04-27 14:11:00,
2013-04-27 10:21:00,59.0,49.0,30.18,SW,223,12.0,21.0,69,0.00,,,0.15,,2013-04-27 14:21:00,
2013-04-27 10:32:00,61.0,51.0,30.18,WSW,240,4.0,13.0,69,0.00,,,0.15,,2013-04-27 14:32:00,
2013-04-27 10:42:00,61.0,51.0,30.18,WSW,240,4.0,13.0,69,0.00,,,0.15,,2013-04-27 14:42:00,
2013-04-27 10:52:00,61.0,50.0,30.18,SSW,207,13.0,17.0,67,0.00,,,0.15,,2013-04-27 14:52:00,
2013-04-27 11:01:00,63.0,52.0,30.18,WSW,249,7.0,16.0,67,0.00,,,0.15,,2013-04-27 15:01:00,
2013-04-27 11:12:00,63.0,52.0,30.18,WSW,249,7.0,16.0,67,0.00,,,0.15,,2013-04-27 15:12:00,
2013-04-27 11:22:00,61.0,50.0,30.18,WSW,246,10.0,15.0,68,0.00,,,0.15,,2013-04-27 15:22:00,
2013-04-27 11:33:00,59.0,49.0,30.18,NW,320,8.0,11.0,70,0.00,,,0.15,,2013-04-27 15:33:00,
2013-04-27 11:42:00,59.0,49.0,30.18,NW,320,8.0,11.0,70,0.00,,,0.15,,2013-04-27 15:42:00,
2013-04-27 11:53:00,59.0,50.0,30.18,WNW,289,7.0,12.0,71,0.00,,,0.15,,2013-04-27 15:53:00,
2013-04-27 12:03:00,58.0,49.0,30.18,NW,313,8.0,14.0,73,0.00,,,0.15,,2013-04-27 16:03:00,
2013-04-27 12:13:00,58.0,49.0,30.18,NW,313,8.0,14.0,73,0.00,,,0.15,,2013-04-27 16:13:00,
2013-04-27 12:22:00,58.0,49.0,30.19,NW,319,6.0,10.0,72,0.00,,,0.15,,2013-04-27 16:22:00,
2013-04-27 12:33:00,59.0,49.0,30.17,NW,311,11.0,13.0,70,0.00,,,0.15,,2013-04-27 16:33:00,
2013-04-27 12:42:00,59.0,49.0,30.17,NW,311,11.0,13.0,70,0.00,,,0.15,,2013-04-27 16:42:00,
2013-04-27 12:53:00,57.0,49.0,30.18,NW,319,7.0,14.0,74,0.00,,,0.15,,2013-04-27 16:53:00,
2013-04-27 13:02:00,58.0,49.0,30.18,WNW,297,7.0,14.0,72,0.00,,,0.15,,2013-04-27 17:02:00,
2013-04-27 13:12:00,58.0,49.0,30.18,WNW,297,7.0,14.0,72,0.00,,,0.15,,2013-04-27 17:12:00,
2013-04-27 13:22:00,57.0,48.0,30.17,NW,310,9.0,13.0,73,0.00,,,0.15,,2013-04-27 17:22:00,
2013-04-27 13:32:00,58.0,49.0,30.16,NW,316,7.0,10.0,73,0.00,,,0.15,,2013-04-27 17:32:00,
2013-04-27 13:42:00,58.0,49.0,30.16,NW,316,7.0,10.0,73,0.00,,,0.15,,2013-04-27 17:42:00,
2013-04-27 13:53:00,61.0,51.0,30.16,West,272,0.0,5.0,69,0.00,,,0.15,,2013-04-27 17:53:00,
2013-04-27 14:02:00,67.0,53.0,30.15,SW,234,15.0,20.0,60,0.00,,,0.15,,2013-04-27 18:02:00,
2013-04-27 14:12:00,67.0,53.0,30.15,SW,234,15.0,20.0,60,0.00,,,0.15,,2013-04-27 18:12:00,
2013-04-27 14:22:00,65.0,49.0,30.14,NNW,345,10.0,17.0,56,0.00,,,0.15,,2013-04-27 18:22:00,
2013-04-27 14:32:00,56.0,47.0,30.14,NW,315,10.0,14.0,71,0.00,,,0.15,,2013-04-27 18:32:00,
2013-04-27 14:42:00,56.0,47.0,30.14,NW,315,10.0,14.0,71,0.00,,,0.15,,2013-04-27 18:42:00,
2013-04-27 14:52:00,55.0,47.0,30.15,WNW,298,9.0,16.0,75,0.00,,,0.15,,2013-04-27 18:52:00,
2013-04-27 15:02:00,54.0,47.0,30.14,NW,307,13.0,17.0,77,0.00,,,0.15,,2013-04-27 19:02:00,
2013-04-27 15:11:00,54.0,47.0,30.14,NW,307,13.0,17.0,77,0.00,,,0.15,,2013-04-27 19:11:00,
2013-04-27 15:21:00,54.0,47.0,30.14,NW,311,12.0,19.0,78,0.00,,,0.15,,2013-04-27 19:21:00,
2013-04-27 15:32:00,54.0,47.0,30.15,NW,318,9.0,18.0,77,0.00,,,0.15,,2013-04-27 19:32:00,
2013-04-27 15:42:00,54.0,47.0,30.15,NW,318,9.0,18.0,77,0.00,,,0.15,,2013-04-27 19:42:00,
2013-04-27 15:53:00,55.0,48.0,30.14,NW,322,12.0,16.0,76,0.00,,,0.15,,2013-04-27 19:53:00,
2013-04-27 16:02:00,55.0,47.0,30.13,NW,315,10.0,15.0,75,0.00,,,0.15,,2013-04-27 20:02:00,
2013-04-27 16:11:00,55.0,47.0,30.13,NW,315,10.0,15.0,75,0.00,,,0.15,,2013-04-27 20:11:00,
2013-04-27 16:21:00,55.0,47.0,30.13,NW,318,6.0,13.0,74,0.00,,,0.15,,2013-04-27 20:21:00,
2013-04-27 16:32:00,55.0,46.0,30.12,WNW,300,9.0,15.0,72,0.00,,,0.15,,2013-04-27 20:32:00,
2013-04-27 16:42:00,55.0,46.0,30.12,WNW,300,9.0,15.0,72,0.00,,,0.15,,2013-04-27 20:42:00,
2013-04-27 16:52:00,54.0,45.0,30.12,WNW,300,8.0,18.0,72,0.00,,,0.15,,2013-04-27 20:52:00,
2013-04-27 17:02:00,54.0,44.0,30.11,NW,311,11.0,16.0,70,0.00,,,0.15,,2013-04-27 21:02:00,
2013-04-27 17:12:00,54.0,44.0,30.11,NW,311,11.0,16.0,70,0.00,,,0.15,,2013-04-27 21:12:00,
2013-04-27 17:21:00,54.0,44.0,30.11,WNW,302,12.0,15.0,69,0.00,,,0.15,,2013-04-27 21:21:00,
2013-04-27 17:33:00,53.0,43.0,30.10,WNW,301,7.0,14.0,70,0.00,,,0.15,,2013-04-27 21:33:00,
2013-04-27 17:43:00,53.0,43.0,30.10,WNW,301,7.0,14.0,70,0.00,,,0.15,,2013-04-27 21:43:00,
2013-04-27 17:53:00,53.0,43.0,30.11,NW,320,9.0,14.0,70,0.00,,,0.15,,2013-04-27 21:53:00,
2013-04-27 18:03:00,53.0,44.0,30.10,NNW,333,9.0,14.0,71,0.00,,,0.15,,2013-04-27 22:03:00,
2013-04-27 18:13:00,53.0,44.0,30.10,NNW,333,9.0,14.0,71,0.00,,,0.15,,2013-04-27 22:13:00,
2013-04-27 18:22:00,53.0,43.0,30.10,NW,314,11.0,14.0,70,0.00,,,0.15,,2013-04-27 22:22:00,
2013-04-27 18:32:00,52.0,43.0,30.10,NW,310,7.0,13.0,71,0.00,,,0.15,,2013-04-27 22:32:00,
2013-04-27 18:42:00,52.0,43.0,30.10,NW,310,7.0,13.0,71,0.00,,,0.15,,2013-04-27 22:42:00,
2013-04-27 18:53:00,52.0,43.0,30.10,North,5,8.0,13.0,70,0.00,,,0.15,,2013-04-27 22:53:00,
2013-04-27 19:02:00,52.0,42.0,30.10,North,360,4.0,10.0,69,0.00,,,0.15,,2013-04-27 23:02:00,
2013-04-27 19:12:00,52.0,42.0,30.10,North,360,4.0,10.0,69,0.00,,,0.15,,2013-04-27 23:12:00,
2013-04-27 19:22:00,52.0,43.0,30.10,North,349,3.0,10.0,70,0.00,,,0.15,,2013-04-27 23:22:00,
2013-04-27 19:32:00,52.0,42.0,30.10,NNW,346,5.0,11.0,68,0.00,,,0.15,,2013-04-27 23:32:00,
2013-04-27 19:42:00,52.0,42.0,30.10,NNW,346,5.0,11.0,68,0.00,,,0.15,,2013-04-27 23:42:00,
2013-04-27 19:52:00,53.0,42.0,30.09,NW,322,4.0,12.0,67,0.00,,,0.15,,2013-04-27 23:52:00,
2013-04-27 20:01:00,53.0,42.0,30.09,NW,309,2.0,7.0,67,0.00,,,0.15,,2013-04-28 00:01:00,
2013-04-27 20:12:00,53.0,42.0,30.09,NW,309,2.0,7.0,67,0.00,,,0.15,,2013-04-28 00:12:00,
2013-04-27 20:21:00,53.0,42.0,30.08,WNW,303,3.0,9.0,67,0.00,,,0.15,,2013-04-28 00:21:00,
2013-04-27 20:32:00,53.0,42.0,30.09,NW,321,3.0,7.0,66,0.00,,,0.15,,2013-04-28 00:32:00,
2013-04-27 20:43:00,53.0,42.0,30.09,NW,321,3.0,7.0,66,0.00,,,0.15,,2013-04-28 00:43:00,
2013-04-27 20:52:00,53.0,42.0,30.08,NW,313,0.0,0.0,66,0.00,,,0.15,,2013-04-28 00:52:00,
2013-04-27 21:02:00,52.0,41.0,30.08,NW,313,0.0,0.0,67,0.00,,,0.15,,2013-04-28 01:02:00,
2013-04-27 21:11:00,50.0,41.0,30.07,NW,313,0.0,0.0,72,0.00,,,0.15,,2013-04-28 01:11:00,
2013-04-27 21:22:00,50.0,41.0,30.07,NW,313,0.0,0.0,72,0.00,,,0.15,,2013-04-28 01:22:00,
2013-04-27 21:32:00,48.0,41.0,30.07,NW,313,0.0,0.0,77,0.00,,,0.15,,2013-04-28 01:32:00,
2013-04-27 21:42:00,48.0,41.0,30.07,NW,313,0.0,0.0,77,0.00,,,0.15,,2013-04-28 01:42:00,
2013-04-27 21:52:00,47.0,42.0,30.08,NW,313,0.0,0.0,82,0.00,,,0.15,,2013-04-28 01:52:00,
2013-04-27 22:02:00,47.0,42.0,30.08,NW,313,0.0,0.0,83,0.00,,,0.15,,2013-04-28 02:02:00,
2013-04-27 22:12:00,47.0,42.0,30.08,NW,313,0.0,0.0,83,0.00,,,0.15,,2013-04-28 02:12:00,
2013-04-27 22:22:00,46.0,41.0,30.08,NW,313,0.0,0.0,84,0.00,,,0.15,,2013-04-28 02:22:00,
2013-04-27 22:32:00,46.0,42.0,30.08,NW,313,0.0,0.0,85,0.00,,,0.15,,2013-04-28 02:32:00,
2013-04-27 22:42:00,46.0,42.0,30.08,NW,313,0.0,0.0,85,0.00,,,0.15,,2013-04-28 02:42:00,
2013-04-27 22:52:00,45.0,41.0,30.08,NW,313,0.0,0.0,86,0.00,,,0.15,,2013-04-28 02:52:00,
2013-04-27 23:01:00,46.0,42.0,30.08,NW,313,0.0,0.0,87,0.00,,,0.15,,2013-04-28 03:01:00,
2013-04-27 23:11:00,46.0,42.0,30.08,NW,313,0.0,0.0,87,0.00,,,0.15,,2013-04-28 03:11:00,
2013-04-27 23:21:00,46.0,41.0,30.08,NW,313,0.0,0.0,84,0.00,,,0.15,,2013-04-28 03:21:00,
2013-04-27 23:33:00,46.0,41.0,30.07,NW,313,0.0,0.0,84,0.00,,,0.15,,2013-04-28 03:33:00,
2013-04-27 23:43:00,46.0,41.0,30.07,NW,313,0.0,0.0,84,0.00,,,0.15,,2013-04-28 03:43:00,
2013-04-27 23:53:00,45.0,41.0,30.08,NW,313,0.0,0.0,85,0.00,,,0.15,,2013-04-28 03:53:00,